Terminal Aerodrome Forecast
Issued by NWS

Home | Current Version | Previous Version | Text Only | Print | Product List | Glossary On
Versions: 1 2 3 4 5 6 7 8 9 10 11 12 13 14 15 16 17 18 19 20 21 22 23 24 25 26 27 28 29 30 31 32 33 34
510
FTUS44 KFWD 181514 CCA
TAFGKY
TAF COR
KGKY 181514Z 1815/1912 02009KT 6SM -RA BR OVC006
      TEMPO 1815/1817 3SM -DZ BR OVC004
     FM182000 35005KT P6SM VCSH OVC011
     FM190300 01004KT 5SM BR BKN008
     FM190600 24004KT 2SM BR OVC005=

USA.gov is the U.S. government's official web portal to all federal, state and local government web resources and services.